sensor_id;sensor_type;location;lat;lon;timestamp;pressure;altitude;pressure_sealevel;temperature;humidity
59337;BME280;45115;52.002;4.686;2022-07-31T00:02:05;101812.34;;;18.30;76.19
59337;BME280;45115;52.002;4.686;2022-07-31T00:04:32;101808.88;;;18.30;76.86
59337;BME280;45115;52.002;4.686;2022-07-31T00:07:00;101800.69;;;18.21;77.13
59337;BME280;45115;52.002;4.686;2022-07-31T00:09:26;101791.16;;;18.15;77.18
59337;BME280;45115;52.002;4.686;2022-07-31T00:11:54;101789.63;;;18.09;77.32
59337;BME280;45115;52.002;4.686;2022-07-31T00:14:21;101794.06;;;17.99;77.36
59337;BME280;45115;52.002;4.686;2022-07-31T00:16:47;101785.09;;;17.90;77.72
59337;BME280;45115;52.002;4.686;2022-07-31T00:19:13;101784.97;;;17.81;78.08
59337;BME280;45115;52.002;4.686;2022-07-31T00:21:41;101784.53;;;17.74;78.44
59337;BME280;45115;52.002;4.686;2022-07-31T00:24:09;101775.78;;;17.68;78.89
59337;BME280;45115;52.002;4.686;2022-07-31T00:26:35;101774.16;;;17.67;78.95
59337;BME280;45115;52.002;4.686;2022-07-31T00:29:02;101765.13;;;17.63;79.11
59337;BME280;45115;52.002;4.686;2022-07-31T00:31:28;101765.41;;;17.61;79.77
59337;BME280;45115;52.002;4.686;2022-07-31T00:33:55;101765.13;;;17.63;80.45
59337;BME280;45115;52.002;4.686;2022-07-31T00:36:21;101764.81;;;17.64;80.63
59337;BME280;45115;52.002;4.686;2022-07-31T00:38:48;101763.75;;;17.65;80.62
59337;BME280;45115;52.002;4.686;2022-07-31T00:41:16;101762.84;;;17.70;81.38
59337;BME280;45115;52.002;4.686;2022-07-31T00:43:42;101764.25;;;17.67;81.36
59337;BME280;45115;52.002;4.686;2022-07-31T00:46:09;101754.31;;;17.68;81.80
59337;BME280;45115;52.002;4.686;2022-07-31T00:48:35;101754.06;;;17.64;82.16
59337;BME280;45115;52.002;4.686;2022-07-31T00:51:02;101753.88;;;17.61;81.91
59337;BME280;45115;52.002;4.686;2022-07-31T00:53:29;101753.09;;;17.60;82.25
59337;BME280;45115;52.002;4.686;2022-07-31T00:55:55;101753.09;;;17.60;82.42
59337;BME280;45115;52.002;4.686;2022-07-31T00:58:24;101744.72;;;17.62;82.35
59337;BME280;45115;52.002;4.686;2022-07-31T01:00:50;101748.13;;;17.67;82.47
59337;BME280;45115;52.002;4.686;2022-07-31T01:03:17;101741.78;;;17.77;83.09
59337;BME280;45115;52.002;4.686;2022-07-31T01:05:43;101741.94;;;17.86;83.22
59337;BME280;45115;52.002;4.686;2022-07-31T01:08:10;101743.44;;;17.92;83.28
59337;BME280;45115;52.002;4.686;2022-07-31T01:10:39;101736.88;;;17.99;83.77
59337;BME280;45115;52.002;4.686;2022-07-31T01:13:09;101736.78;;;18.04;84.70
59337;BME280;45115;52.002;4.686;2022-07-31T01:15:40;101734.38;;;18.02;84.99
59337;BME280;45115;52.002;4.686;2022-07-31T01:18:07;101734.91;;;18.04;86.17
59337;BME280;45115;52.002;4.686;2022-07-31T01:20:35;101733.00;;;18.05;86.89
59337;BME280;45115;52.002;4.686;2022-07-31T01:23:15;101730.06;;;18.06;87.65
59337;BME280;45115;52.002;4.686;2022-07-31T01:26:13;101737.59;;;18.04;88.46
59337;BME280;45115;52.002;4.686;2022-07-31T01:29:01;101740.22;;;18.10;89.25
59337;BME280;45115;52.002;4.686;2022-07-31T01:31:33;101743.59;;;18.15;89.79
59337;BME280;45115;52.002;4.686;2022-07-31T01:34:03;101740.59;;;18.17;90.12
59337;BME280;45115;52.002;4.686;2022-07-31T01:36:31;101741.63;;;18.21;91.01
59337;BME280;45115;52.002;4.686;2022-07-31T01:39:01;101736.91;;;18.27;91.41
59337;BME280;45115;52.002;4.686;2022-07-31T01:41:28;101739.81;;;18.30;91.51
59337;BME280;45115;52.002;4.686;2022-07-31T01:43:56;101737.03;;;18.36;92.06
59337;BME280;45115;52.002;4.686;2022-07-31T01:46:25;101734.03;;;18.37;92.20
59337;BME280;45115;52.002;4.686;2022-07-31T01:48:53;101737.72;;;18.41;92.66
59337;BME280;45115;52.002;4.686;2022-07-31T01:51:20;101735.94;;;18.37;92.70
59337;BME280;45115;52.002;4.686;2022-07-31T01:53:48;101731.16;;;18.33;92.82
59337;BME280;45115;52.002;4.686;2022-07-31T01:56:16;101731.66;;;18.36;93.33
59337;BME280;45115;52.002;4.686;2022-07-31T01:58:44;101723.59;;;18.36;93.53
59337;BME280;45115;52.002;4.686;2022-07-31T02:01:24;101734.66;;;18.34;93.52
59337;BME280;45115;52.002;4.686;2022-07-31T02:03:51;101734.75;;;18.29;93.98
59337;BME280;45115;52.002;4.686;2022-07-31T02:06:18;101732.44;;;18.22;94.94
59337;BME280;45115;52.002;4.686;2022-07-31T02:08:46;101728.56;;;18.14;95.23
59337;BME280;45115;52.002;4.686;2022-07-31T02:11:15;101724.09;;;18.10;95.96
59337;BME280;45115;52.002;4.686;2022-07-31T02:13:43;101706.16;;;18.05;96.52
59337;BME280;45115;52.002;4.686;2022-07-31T02:16:10;101715.00;;;18.05;96.37
59337;BME280;45115;52.002;4.686;2022-07-31T02:18:38;101714.75;;;18.07;97.10
59337;BME280;45115;52.002;4.686;2022-07-31T02:21:13;101698.63;;;18.07;97.65
59337;BME280;45115;52.002;4.686;2022-07-31T02:23:40;101694.63;;;18.04;97.88
59337;BME280;45115;52.002;4.686;2022-07-31T02:26:06;101692.94;;;18.09;98.23
59337;BME280;45115;52.002;4.686;2022-07-31T02:28:34;101691.25;;;18.13;98.38
59337;BME280;45115;52.002;4.686;2022-07-31T02:31:02;101694.75;;;18.13;98.07
59337;BME280;45115;52.002;4.686;2022-07-31T02:33:30;101691.69;;;18.20;98.17
59337;BME280;45115;52.002;4.686;2022-07-31T02:35:59;101695.16;;;18.21;97.87
59337;BME280;45115;52.002;4.686;2022-07-31T02:38:28;101692.66;;;18.24;97.55
59337;BME280;45115;52.002;4.686;2022-07-31T02:40:56;101686.00;;;18.22;97.15
59337;BME280;45115;52.002;4.686;2022-07-31T02:43:25;101682.22;;;18.23;97.54
59337;BME280;45115;52.002;4.686;2022-07-31T02:45:54;101674.94;;;18.23;97.65
59337;BME280;45115;52.002;4.686;2022-07-31T02:48:22;101674.66;;;18.25;98.18
59337;BME280;45115;52.002;4.686;2022-07-31T02:50:50;101681.03;;;18.15;98.32
59337;BME280;45115;52.002;4.686;2022-07-31T02:53:19;101680.81;;;18.11;98.91
59337;BME280;45115;52.002;4.686;2022-07-31T02:55:49;101681.22;;;18.04;99.15
59337;BME280;45115;52.002;4.686;2022-07-31T02:58:19;101680.88;;;18.06;98.76
59337;BME280;45115;52.002;4.686;2022-07-31T03:00:45;101685.78;;;18.04;99.46
59337;BME280;45115;52.002;4.686;2022-07-31T03:03:13;101680.19;;;18.00;99.36
59337;BME280;45115;52.002;4.686;2022-07-31T03:05:40;101675.31;;;18.02;99.85
59337;BME280;45115;52.002;4.686;2022-07-31T03:08:07;101672.94;;;18.01;99.83
59337;BME280;45115;52.002;4.686;2022-07-31T03:10:38;101667.56;;;18.01;100.00
59337;BME280;45115;52.002;4.686;2022-07-31T03:13:04;101670.56;;;17.99;100.00
59337;BME280;45115;52.002;4.686;2022-07-31T03:15:31;101668.16;;;17.98;100.00
59337;BME280;45115;52.002;4.686;2022-07-31T03:17:58;101658.72;;;18.00;100.00
59337;BME280;45115;52.002;4.686;2022-07-31T03:20:35;101661.41;;;18.00;100.00
59337;BME280;45115;52.002;4.686;2022-07-31T03:23:04;101667.66;;;17.96;100.00
59337;BME280;45115;52.002;4.686;2022-07-31T03:25:37;101670.94;;;17.92;100.00
59337;BME280;45115;52.002;4.686;2022-07-31T03:28:04;101671.81;;;17.88;100.00
59337;BME280;45115;52.002;4.686;2022-07-31T03:30:30;101671.81;;;17.88;100.00
59337;BME280;45115;52.002;4.686;2022-07-31T03:32:57;101662.47;;;17.85;100.00
59337;BME280;45115;52.002;4.686;2022-07-31T03:35:27;101666.25;;;17.84;100.00
59337;BME280;45115;52.002;4.686;2022-07-31T03:37:53;101663.66;;;17.79;100.00
59337;BME280;45115;52.002;4.686;2022-07-31T03:40:20;101669.56;;;17.81;100.00
59337;BME280;45115;52.002;4.686;2022-07-31T03:42:48;101667.25;;;17.74;100.00
59337;BME280;45115;52.002;4.686;2022-07-31T03:45:14;101670.50;;;17.71;100.00
59337;BME280;45115;52.002;4.686;2022-07-31T03:47:41;101667.06;;;17.71;100.00
59337;BME280;45115;52.002;4.686;2022-07-31T03:50:08;101669.66;;;17.76;100.00
59337;BME280;45115;52.002;4.686;2022-07-31T03:52:36;101666.97;;;17.76;100.00
59337;BME280;45115;52.002;4.686;2022-07-31T03:55:04;101662.16;;;17.73;100.00
59337;BME280;45115;52.002;4.686;2022-07-31T03:57:30;101665.06;;;17.76;100.00
59337;BME280;45115;52.002;4.686;2022-07-31T03:59:59;101662.88;;;17.78;100.00
59337;BME280;45115;52.002;4.686;2022-07-31T04:02:28;101659.41;;;17.78;100.00
59337;BME280;45115;52.002;4.686;2022-07-31T04:05:03;101667.94;;;17.80;100.00
59337;BME280;45115;52.002;4.686;2022-07-31T04:07:30;101664.47;;;17.79;100.00
59337;BME280;45115;52.002;4.686;2022-07-31T04:09:57;101663.66;;;17.79;100.00
59337;BME280;45115;52.002;4.686;2022-07-31T04:12:23;101660.09;;;17.84;100.00
59337;BME280;45115;52.002;4.686;2022-07-31T04:14:50;101661.09;;;17.88;100.00
59337;BME280;45115;52.002;4.686;2022-07-31T04:17:18;101658.41;;;17.88;100.00
59337;BME280;45115;52.002;4.686;2022-07-31T04:19:45;101649.06;;;17.85;100.00
59337;BME280;45115;52.002;4.686;2022-07-31T04:22:13;101650.88;;;17.90;100.00
59337;BME280;45115;52.002;4.686;2022-07-31T04:24:39;101641.63;;;17.96;99.91
59337;BME280;45115;52.002;4.686;2022-07-31T04:27:29;101640.50;;;17.97;99.48
59337;BME280;45115;52.002;4.686;2022-07-31T04:29:56;101644.13;;;18.06;99.14
59337;BME280;45115;52.002;4.686;2022-07-31T04:32:24;101643.03;;;18.08;99.11
59337;BME280;45115;52.002;4.686;2022-07-31T04:34:52;101652.56;;;18.14;99.16
59337;BME280;45115;52.002;4.686;2022-07-31T04:37:19;101649.88;;;18.14;98.99
59337;BME280;45115;52.002;4.686;2022-07-31T04:39:46;101645.81;;;18.16;98.91
59337;BME280;45115;52.002;4.686;2022-07-31T04:42:12;101640.44;;;18.16;99.18
59337;BME280;45115;52.002;4.686;2022-07-31T04:44:40;101635.28;;;18.20;99.32
59337;BME280;45115;52.002;4.686;2022-07-31T04:47:07;101641.72;;;18.19;99.20
59337;BME280;45115;52.002;4.686;2022-07-31T04:49:41;101637.66;;;18.22;99.47
59337;BME280;45115;52.002;4.686;2022-07-31T04:52:09;101637.06;;;18.25;99.38
59337;BME280;45115;52.002;4.686;2022-07-31T04:54:36;101650.56;;;18.33;99.37
59337;BME280;45115;52.002;4.686;2022-07-31T04:57:03;101640.81;;;18.38;99.13
59337;BME280;45115;52.002;4.686;2022-07-31T04:59:29;101640.09;;;18.46;98.90
59337;BME280;45115;52.002;4.686;2022-07-31T05:01:56;101631.44;;;18.49;98.75
59337;BME280;45115;52.002;4.686;2022-07-31T05:04:23;101636.09;;;18.57;98.68
59337;BME280;45115;52.002;4.686;2022-07-31T05:06:52;101644.66;;;18.59;98.63
59337;BME280;45115;52.002;4.686;2022-07-31T05:09:19;101648.34;;;18.64;98.42
59337;BME280;45115;52.002;4.686;2022-07-31T05:11:47;101649.31;;;18.68;98.55
59337;BME280;45115;52.002;4.686;2022-07-31T05:14:15;101638.75;;;18.71;98.53
59337;BME280;45115;52.002;4.686;2022-07-31T05:16:42;101636.06;;;18.71;98.21
59337;BME280;45115;52.002;4.686;2022-07-31T05:19:08;101634.78;;;18.69;98.53
59337;BME280;45115;52.002;4.686;2022-07-31T05:21:55;101636.38;;;18.70;98.85
59337;BME280;45115;52.002;4.686;2022-07-31T05:24:42;101642.44;;;18.76;99.34
59337;BME280;45115;52.002;4.686;2022-07-31T05:27:11;101643.09;;;18.81;98.99
59337;BME280;45115;52.002;4.686;2022-07-31T05:29:40;101642.19;;;18.86;99.28
59337;BME280;45115;52.002;4.686;2022-07-31T05:32:07;101642.09;;;18.91;99.04
59337;BME280;45115;52.002;4.686;2022-07-31T05:34:35;101636.88;;;18.95;99.12
59337;BME280;45115;52.002;4.686;2022-07-31T05:37:03;101642.03;;;19.05;98.77
59337;BME280;45115;52.002;4.686;2022-07-31T05:39:31;101630.66;;;19.08;98.21
59337;BME280;45115;52.002;4.686;2022-07-31T05:42:16;101643.34;;;19.08;98.35
59337;BME280;45115;52.002;4.686;2022-07-31T05:45:07;101634.63;;;19.11;98.83
59337;BME280;45115;52.002;4.686;2022-07-31T05:47:34;101643.22;;;19.13;98.78
59337;BME280;45115;52.002;4.686;2022-07-31T05:50:01;101641.78;;;19.16;98.88
59337;BME280;45115;52.002;4.686;2022-07-31T05:52:30;101641.66;;;19.21;98.68
59337;BME280;45115;52.002;4.686;2022-07-31T05:55:17;101640.31;;;19.32;98.72
59337;BME280;45115;52.002;4.686;2022-07-31T05:58:02;101634.16;;;19.41;98.29
59337;BME280;45115;52.002;4.686;2022-07-31T06:00:29;101624.25;;;19.50;97.76
59337;BME280;45115;52.002;4.686;2022-07-31T06:02:55;101633.31;;;19.54;97.37
59337;BME280;45115;52.002;4.686;2022-07-31T06:05:50;101630.31;;;19.56;97.35
59337;BME280;45115;52.002;4.686;2022-07-31T06:08:18;101629.38;;;19.60;96.94
59337;BME280;45115;52.002;4.686;2022-07-31T06:10:47;101626.84;;;19.64;96.57
59337;BME280;45115;52.002;4.686;2022-07-31T06:13:13;101634.91;;;19.64;96.58
59337;BME280;45115;52.002;4.686;2022-07-31T06:15:40;101634.31;;;19.67;97.03
59337;BME280;45115;52.002;4.686;2022-07-31T06:18:08;101631.31;;;19.69;96.69
59337;BME280;45115;52.002;4.686;2022-07-31T06:20:35;101637.34;;;19.74;96.07
59337;BME280;45115;52.002;4.686;2022-07-31T06:23:02;101641.00;;;19.78;96.23
59337;BME280;45115;52.002;4.686;2022-07-31T06:25:34;101638.47;;;19.82;96.17
59337;BME280;45115;52.002;4.686;2022-07-31T06:28:02;101642.13;;;19.86;95.53
59337;BME280;45115;52.002;4.686;2022-07-31T06:30:29;101640.09;;;19.92;95.57
59337;BME280;45115;52.002;4.686;2022-07-31T06:32:56;101638.34;;;19.96;94.73
59337;BME280;45115;52.002;4.686;2022-07-31T06:35:24;101640.63;;;20.03;94.59
59337;BME280;45115;52.002;4.686;2022-07-31T06:38:22;101622.28;;;20.05;95.00
59337;BME280;45115;52.002;4.686;2022-07-31T06:41:26;101622.88;;;20.02;95.22
59337;BME280;45115;52.002;4.686;2022-07-31T06:44:26;101628.88;;;19.99;95.94
59337;BME280;45115;52.002;4.686;2022-07-31T06:47:11;101631.09;;;19.97;97.35
59337;BME280;45115;52.002;4.686;2022-07-31T06:50:01;101640.16;;;20.01;98.24
59337;BME280;45115;52.002;4.686;2022-07-31T06:52:33;101628.59;;;20.09;98.98
59337;BME280;45115;52.002;4.686;2022-07-31T06:54:59;101620.84;;;20.08;98.07
59337;BME280;45115;52.002;4.686;2022-07-31T06:57:27;101628.28;;;20.11;98.34
59337;BME280;45115;52.002;4.686;2022-07-31T06:59:54;101625.75;;;20.05;97.32
59337;BME280;45115;52.002;4.686;2022-07-31T07:02:20;101624.34;;;20.17;97.41
59337;BME280;45115;52.002;4.686;2022-07-31T07:04:47;101624.22;;;20.40;97.43
59337;BME280;45115;52.002;4.686;2022-07-31T07:07:13;101621.69;;;20.61;96.21
59337;BME280;45115;52.002;4.686;2022-07-31T07:09:40;101627.41;;;20.68;94.63
59337;BME280;45115;52.002;4.686;2022-07-31T07:12:07;101616.47;;;20.74;93.69
59337;BME280;45115;52.002;4.686;2022-07-31T07:14:35;101622.94;;;20.73;93.61
59337;BME280;45115;52.002;4.686;2022-07-31T07:19:28;101629.31;;;20.59;92.35
59337;BME280;45115;52.002;4.686;2022-07-31T07:22:03;101630.75;;;20.56;92.93
59337;BME280;45115;52.002;4.686;2022-07-31T07:24:30;101627.88;;;20.53;93.76
59337;BME280;45115;52.002;4.686;2022-07-31T07:27:07;101622.31;;;20.40;93.17
59337;BME280;45115;52.002;4.686;2022-07-31T07:29:35;101623.63;;;20.52;93.34
59337;BME280;45115;52.002;4.686;2022-07-31T07:32:02;101618.84;;;20.66;92.54
59337;BME280;45115;52.002;4.686;2022-07-31T07:34:29;101617.41;;;20.60;91.87
59337;BME280;45115;52.002;4.686;2022-07-31T07:36:56;101613.13;;;20.68;91.90
59337;BME280;45115;52.002;4.686;2022-07-31T07:39:26;101608.03;;;20.75;92.42
59337;BME280;45115;52.002;4.686;2022-07-31T07:41:52;101606.63;;;20.69;92.74
59337;BME280;45115;52.002;4.686;2022-07-31T07:44:19;101609.03;;;20.44;95.04
59337;BME280;45115;52.002;4.686;2022-07-31T07:46:47;101606.44;;;20.21;96.19
59337;BME280;45115;52.002;4.686;2022-07-31T07:49:16;101611.00;;;20.03;97.51
59337;BME280;45115;52.002;4.686;2022-07-31T07:52:12;101603.69;;;19.95;99.18
59337;BME280;45115;52.002;4.686;2022-07-31T07:54:38;101611.56;;;19.91;99.60
59337;BME280;45115;52.002;4.686;2022-07-31T07:57:42;101619.34;;;19.92;100.00
59337;BME280;45115;52.002;4.686;2022-07-31T08:00:27;101614.13;;;19.96;100.00
59337;BME280;45115;52.002;4.686;2022-07-31T08:03:00;101613.53;;;19.99;100.00
59337;BME280;45115;52.002;4.686;2022-07-31T08:05:27;101612.28;;;20.05;99.73
59337;BME280;45115;52.002;4.686;2022-07-31T08:07:53;101616.09;;;20.04;99.03
59337;BME280;45115;52.002;4.686;2022-07-31T08:10:37;101623.06;;;20.05;99.32
59337;BME280;45115;52.002;4.686;2022-07-31T08:13:13;101622.75;;;20.07;99.21
59337;BME280;45115;52.002;4.686;2022-07-31T08:15:58;101610.56;;;20.18;99.16
59337;BME280;45115;52.002;4.686;2022-07-31T08:18:31;101619.31;;;20.33;98.33
59337;BME280;45115;52.002;4.686;2022-07-31T08:20:57;101616.13;;;20.31;97.30
59337;BME280;45115;52.002;4.686;2022-07-31T08:23:24;101611.22;;;20.42;97.10
59337;BME280;45115;52.002;4.686;2022-07-31T08:25:50;101608.88;;;20.49;96.50
59337;BME280;45115;52.002;4.686;2022-07-31T08:28:17;101609.94;;;20.57;97.02
59337;BME280;45115;52.002;4.686;2022-07-31T08:30:43;101606.31;;;20.70;96.23
59337;BME280;45115;52.002;4.686;2022-07-31T08:33:12;101599.16;;;20.92;95.25
59337;BME280;45115;52.002;4.686;2022-07-31T08:35:42;101601.03;;;21.18;93.49
59337;BME280;45115;52.002;4.686;2022-07-31T08:38:10;101597.31;;;21.41;92.76
59337;BME280;45115;52.002;4.686;2022-07-31T08:40:44;101597.53;;;21.66;90.67
59337;BME280;45115;52.002;4.686;2022-07-31T08:43:11;101603.97;;;21.82;89.63
59337;BME280;45115;52.002;4.686;2022-07-31T08:45:38;101607.00;;;21.81;88.36
59337;BME280;45115;52.002;4.686;2022-07-31T08:48:15;101615.34;;;21.97;88.23
59337;BME280;45115;52.002;4.686;2022-07-31T08:50:47;101607.31;;;21.79;88.02
59337;BME280;45115;52.002;4.686;2022-07-31T08:53:34;101607.75;;;21.90;88.28
59337;BME280;45115;52.002;4.686;2022-07-31T08:56:06;101608.69;;;21.94;87.77
59337;BME280;45115;52.002;4.686;2022-07-31T08:58:33;101627.81;;;22.10;87.32
59337;BME280;45115;52.002;4.686;2022-07-31T09:00:59;101618.25;;;21.92;86.98
59337;BME280;45115;52.002;4.686;2022-07-31T09:03:26;101619.94;;;21.96;86.13
59337;BME280;45115;52.002;4.686;2022-07-31T09:05:58;101618.31;;;22.04;85.31
59337;BME280;45115;52.002;4.686;2022-07-31T09:08:24;101621.53;;;21.97;85.15
59337;BME280;45115;52.002;4.686;2022-07-31T09:11:00;101620.41;;;21.98;86.04
59337;BME280;45115;52.002;4.686;2022-07-31T09:13:27;101616.59;;;21.99;85.37
59337;BME280;45115;52.002;4.686;2022-07-31T09:15:56;101616.03;;;21.85;85.12
59337;BME280;45115;52.002;4.686;2022-07-31T09:18:22;101613.63;;;21.92;86.52
59337;BME280;45115;52.002;4.686;2022-07-31T09:21:02;101612.78;;;22.00;84.98
59337;BME280;45115;52.002;4.686;2022-07-31T09:23:30;101613.19;;;22.11;84.27
59337;BME280;45115;52.002;4.686;2022-07-31T09:25:58;101607.13;;;22.14;83.92
59337;BME280;45115;52.002;4.686;2022-07-31T09:28:31;101611.41;;;22.15;83.02
59337;BME280;45115;52.002;4.686;2022-07-31T09:30:59;101606.00;;;22.15;83.25
59337;BME280;45115;52.002;4.686;2022-07-31T09:33:51;101607.97;;;22.06;83.28
59337;BME280;45115;52.002;4.686;2022-07-31T09:36:38;101606.88;;;21.77;84.54
59337;BME280;45115;52.002;4.686;2022-07-31T09:39:27;101607.25;;;21.58;85.54
59337;BME280;45115;52.002;4.686;2022-07-31T09:42:12;101601.31;;;21.34;86.94
59337;BME280;45115;52.002;4.686;2022-07-31T09:44:48;101607.41;;;21.14;87.70
59337;BME280;45115;52.002;4.686;2022-07-31T09:47:18;101603.13;;;20.95;89.89
59337;BME280;45115;52.002;4.686;2022-07-31T09:49:50;101598.22;;;20.70;93.05
59337;BME280;45115;52.002;4.686;2022-07-31T09:52:19;101606.94;;;20.67;94.30
59337;BME280;45115;52.002;4.686;2022-07-31T09:54:45;101601.88;;;20.48;95.65
59337;BME280;45115;52.002;4.686;2022-07-31T09:57:26;101608.22;;;20.26;96.68
59337;BME280;45115;52.002;4.686;2022-07-31T09:59:55;101603.44;;;20.14;98.31
59337;BME280;45115;52.002;4.686;2022-07-31T10:02:24;101602.91;;;20.03;99.55
59337;BME280;45115;52.002;4.686;2022-07-31T10:04:52;101604.84;;;20.02;100.00
59337;BME280;45115;52.002;4.686;2022-07-31T10:07:21;101603.41;;;20.05;100.00
59337;BME280;45115;52.002;4.686;2022-07-31T10:09:52;101600.56;;;20.10;100.00
59337;BME280;45115;52.002;4.686;2022-07-31T10:12:45;101599.06;;;19.95;100.00
59337;BME280;45115;52.002;4.686;2022-07-31T10:15:13;101601.13;;;19.89;100.00
59337;BME280;45115;52.002;4.686;2022-07-31T10:17:43;101592.88;;;19.86;100.00
59337;BME280;45115;52.002;4.686;2022-07-31T10:20:23;101588.13;;;19.83;100.00
59337;BME280;45115;52.002;4.686;2022-07-31T10:23:28;101594.47;;;19.87;100.00
59337;BME280;45115;52.002;4.686;2022-07-31T10:26:00;101587.66;;;19.89;100.00
59337;BME280;45115;52.002;4.686;2022-07-31T10:28:27;101600.47;;;19.84;100.00
59337;BME280;45115;52.002;4.686;2022-07-31T10:30:54;101593.19;;;19.84;100.00
59337;BME280;45115;52.002;4.686;2022-07-31T10:33:21;101590.50;;;19.84;100.00
59337;BME280;45115;52.002;4.686;2022-07-31T10:36:07;101587.97;;;19.88;100.00
59337;BME280;45115;52.002;4.686;2022-07-31T10:38:57;101586.88;;;19.89;100.00
59337;BME280;45115;52.002;4.686;2022-07-31T10:41:41;101587.81;;;19.84;100.00
59337;BME280;45115;52.002;4.686;2022-07-31T10:44:12;101582.91;;;19.86;100.00
59337;BME280;45115;52.002;4.686;2022-07-31T10:47:13;101583.50;;;19.83;100.00
59337;BME280;45115;52.002;4.686;2022-07-31T10:49:58;101584.47;;;19.78;100.00
59337;BME280;45115;52.002;4.686;2022-07-31T10:52:45;101580.50;;;19.76;100.00
59337;BME280;45115;52.002;4.686;2022-07-31T10:55:17;101581.75;;;19.78;100.00
59337;BME280;45115;52.002;4.686;2022-07-31T10:58:13;101575.13;;;19.85;100.00
59337;BME280;45115;52.002;4.686;2022-07-31T11:01:05;101578.47;;;19.90;100.00
59337;BME280;45115;52.002;4.686;2022-07-31T11:03:36;101579.44;;;19.95;100.00
59337;BME280;45115;52.002;4.686;2022-07-31T11:06:36;101566.78;;;20.04;100.00
59337;BME280;45115;52.002;4.686;2022-07-31T11:09:22;101575.53;;;20.27;100.00
59337;BME280;45115;52.002;4.686;2022-07-31T11:12:17;101562.72;;;20.33;100.00
59337;BME280;45115;52.002;4.686;2022-07-31T11:14:56;101570.50;;;20.35;100.00
59337;BME280;45115;52.002;4.686;2022-07-31T11:18:09;101564.31;;;20.52;100.00
59337;BME280;45115;52.002;4.686;2022-07-31T11:20:40;101570.31;;;20.66;99.84
59337;BME280;45115;52.002;4.686;2022-07-31T11:23:12;101567.59;;;20.84;99.38
59337;BME280;45115;52.002;4.686;2022-07-31T11:25:41;101564.75;;;20.98;97.89
59337;BME280;45115;52.002;4.686;2022-07-31T11:28:12;101569.34;;;20.97;97.50
59337;BME280;45115;52.002;4.686;2022-07-31T11:30:49;101567.56;;;21.10;97.14
59337;BME280;45115;52.002;4.686;2022-07-31T11:33:32;101570.81;;;21.34;95.60
59337;BME280;45115;52.002;4.686;2022-07-31T11:36:03;101578.28;;;21.67;94.19
59337;BME280;45115;52.002;4.686;2022-07-31T11:38:30;101572.72;;;22.02;89.88
59337;BME280;45115;52.002;4.686;2022-07-31T11:40:56;101580.22;;;22.18;87.71
59337;BME280;45115;52.002;4.686;2022-07-31T11:43:26;101577.84;;;22.38;87.71
59337;BME280;45115;52.002;4.686;2022-07-31T11:45:54;101583.91;;;23.23;83.72
59337;BME280;45115;52.002;4.686;2022-07-31T11:48:21;101579.59;;;23.22;81.63
59337;BME280;45115;52.002;4.686;2022-07-31T11:50:49;101578.97;;;22.92;82.31
59337;BME280;45115;52.002;4.686;2022-07-31T11:53:15;101576.84;;;22.42;83.69
59337;BME280;45115;52.002;4.686;2022-07-31T11:55:43;101565.97;;;22.09;84.63
59337;BME280;45115;52.002;4.686;2022-07-31T11:58:09;101563.28;;;21.87;85.22
59337;BME280;45115;52.002;4.686;2022-07-31T12:00:37;101567.75;;;21.83;85.95
59337;BME280;45115;52.002;4.686;2022-07-31T12:03:04;101572.75;;;21.63;87.53
59337;BME280;45115;52.002;4.686;2022-07-31T12:05:30;101569.72;;;21.65;87.81
59337;BME280;45115;52.002;4.686;2022-07-31T12:07:57;101561.34;;;21.88;87.48
59337;BME280;45115;52.002;4.686;2022-07-31T12:10:23;101571.84;;;21.89;86.84
59337;BME280;45115;52.002;4.686;2022-07-31T12:12:50;101565.13;;;22.17;85.77
59337;BME280;45115;52.002;4.686;2022-07-31T12:15:17;101567.03;;;21.95;86.16
59337;BME280;45115;52.002;4.686;2022-07-31T12:17:46;101569.75;;;21.95;86.62
59337;BME280;45115;52.002;4.686;2022-07-31T12:20:13;101565.69;;;21.80;88.28
59337;BME280;45115;52.002;4.686;2022-07-31T12:22:39;101563.94;;;22.06;88.32
59337;BME280;45115;52.002;4.686;2022-07-31T12:25:06;101555.34;;;22.46;84.87
59337;BME280;45115;52.002;4.686;2022-07-31T12:27:36;101557.53;;;22.74;83.09
59337;BME280;45115;52.002;4.686;2022-07-31T12:30:13;101562.09;;;23.07;80.98
59337;BME280;45115;52.002;4.686;2022-07-31T12:32:40;101553.38;;;23.02;80.87
59337;BME280;45115;52.002;4.686;2022-07-31T12:35:08;101555.66;;;23.00;81.43
59337;BME280;45115;52.002;4.686;2022-07-31T12:37:44;101546.84;;;22.90;80.96
59337;BME280;45115;52.002;4.686;2022-07-31T12:40:20;101548.84;;;22.81;80.55
59337;BME280;45115;52.002;4.686;2022-07-31T12:42:49;101546.44;;;22.67;80.36
59337;BME280;45115;52.002;4.686;2022-07-31T12:45:15;101560.38;;;22.56;80.57
59337;BME280;45115;52.002;4.686;2022-07-31T12:47:42;101556.41;;;22.54;81.36
59337;BME280;45115;52.002;4.686;2022-07-31T12:50:10;101541.19;;;22.83;80.72
59337;BME280;45115;52.002;4.686;2022-07-31T12:52:37;101546.03;;;23.61;77.49
59337;BME280;45115;52.002;4.686;2022-07-31T12:55:03;101545.19;;;24.55;73.83
59337;BME280;45115;52.002;4.686;2022-07-31T12:57:30;101549.91;;;25.03;71.71
59337;BME280;45115;52.002;4.686;2022-07-31T12:59:56;101544.06;;;25.01;69.76
59337;BME280;45115;52.002;4.686;2022-07-31T13:02:23;101545.25;;;24.42;70.34
59337;BME280;45115;52.002;4.686;2022-07-31T13:04:49;101551.22;;;24.20;71.69
59337;BME280;45115;52.002;4.686;2022-07-31T13:07:17;101558.25;;;23.96;73.50
59337;BME280;45115;52.002;4.686;2022-07-31T13:09:44;101554.00;;;23.82;75.29
59337;BME280;45115;52.002;4.686;2022-07-31T13:12:10;101565.75;;;23.61;76.24